Time;durP1;ratioP1;P1;durP2;ratioP2;P2;SDS_P1;SDS_P2;PMS_P1;PMS_P2;Temp;Humidity;BMP_temperature;BMP_pressure;BME280_temperature;BME280_humidity;BME280_pressure;Samples;Min_cycle;Max_cycle;Signal;HPM_P1;HPM_P2
2022/12/14 00:00:46;;;;;;;19.77;12.57;;;;;;;-2.74;95.37;96241.91;18297245;32;20094;-65
2022/12/14 00:10:49;;;;;;;21.77;13.73;;;;;;;-2.74;94.87;96236.63;18297811;32;20049;-65
2022/12/14 00:20:51;;;;;;;20.77;13.70;;;;;;;-2.76;94.87;96236.03;18296963;32;20453;-67
2022/12/14 00:30:57;;;;;;;20.30;13.23;;;;;;;-2.80;93.48;96242.78;18270071;32;20093;-65
2022/12/14 00:41:00;;;;;;;19.87;13.00;;;;;;;-2.78;94.55;96235.44;18296589;32;20489;-66
2022/12/14 00:51:03;;;;;;;21.93;13.73;;;;;;;-2.76;94.60;96217.50;18295412;32;20062;-65
2022/12/14 01:01:08;;;;;;;21.07;13.97;;;;;;;-2.79;94.04;96210.03;18294879;32;20062;-66
2022/12/14 01:11:13;;;;;;;22.57;14.37;;;;;;;-2.75;94.50;96208.56;18294289;32;20066;-65
2022/12/14 01:21:19;;;;;;;19.50;13.40;;;;;;;-2.75;95.03;96211.19;18294199;32;20106;-65
2022/12/14 01:31:30;;;;;;;23.23;14.13;;;;;;;-2.76;95.54;96200.84;18294081;32;20433;-65
2022/12/14 01:41:36;;;;;;;24.67;15.13;;;;;;;-2.73;95.47;96219.72;18293655;32;20066;-65
2022/12/14 01:51:42;;;;;;;24.13;14.83;;;;;;;-2.63;96.60;96205.97;18293126;32;20077;-65
2022/12/14 02:01:46;;;;;;;22.57;14.60;;;;;;;-2.59;95.80;96196.56;18292601;32;20437;-65
2022/12/14 02:12:09;;;;;;;22.00;14.97;;;;;;;-2.56;96.45;96211.19;18292404;32;20058;-65
2022/12/14 02:22:12;;;;;;;26.83;15.90;;;;;;;-2.54;96.08;96198.53;18281276;32;20066;-65
2022/12/14 02:32:29;;;;;;;27.90;16.13;;;;;;;-2.50;96.72;96188.31;18302400;32;20117;-65
2022/12/14 02:42:42;;;;;;;23.93;15.07;;;;;;;-2.47;96.87;96153.47;18302017;32;20101;-65
2022/12/14 02:53:32;;;;;;;22.00;14.83;;;;;;;-2.46;97.28;96158.53;18301661;32;20362;-65
2022/12/14 03:03:34;;;;;;;24.43;15.87;;;;;;;-2.43;97.75;96125.50;18281428;32;20055;-65
2022/12/14 03:13:47;;;;;;;26.10;16.27;;;;;;;-2.39;97.33;96148.66;18300353;32;20425;-65
2022/12/14 03:23:52;;;;;;;27.77;16.73;;;;;;;-2.34;97.79;96118.06;18299907;32;20122;-65
2022/12/14 03:33:59;;;;;;;26.73;16.03;;;;;;;-2.30;96.96;96124.50;18298828;32;20061;-65
2022/12/14 03:44:09;;;;;;;27.07;15.90;;;;;;;-2.31;96.90;96117.62;18298964;32;20130;-65
2022/12/14 03:54:26;;;;;;;25.50;16.10;;;;;;;-2.35;96.32;96097.94;18298504;32;20399;-65
2022/12/14 04:04:38;;;;;;;27.70;17.40;;;;;;;-2.32;96.10;96085.03;18297733;32;20063;-65
2022/12/14 04:35:53;;;;;;;27.20;16.67;;;;;;;-2.25;97.75;96067.22;18296467;32;20053;-66
2022/12/14 04:46:05;;;;;;;28.07;16.30;;;;;;;-2.21;97.98;96051.66;18295077;32;20089;-65
2022/12/14 04:56:34;;;;;;;28.10;16.13;;;;;;;-2.25;98.01;96029.34;18295471;32;20062;-65
2022/12/14 05:06:53;;;;;;;28.07;17.10;;;;;;;-2.20;98.32;96034.75;18294703;32;20042;-65
2022/12/14 05:16:56;;;;;;;27.33;17.33;;;;;;;-2.11;98.32;96017.50;18294765;32;20046;-65
2022/12/14 05:26:59;;;;;;;28.40;17.17;;;;;;;-2.05;98.66;96008.63;18294115;32;20062;-65
2022/12/14 05:37:01;;;;;;;28.13;16.83;;;;;;;-2.02;99.29;95974.78;18293949;32;20500;-66
2022/12/14 05:47:04;;;;;;;29.27;17.93;;;;;;;-1.98;99.14;95976.72;18279704;32;20053;-65
2022/12/14 05:57:07;;;;;;;28.60;18.00;;;;;;;-1.89;99.27;95956.81;18295889;32;20070;-65
2022/12/14 06:07:10;;;;;;;27.37;17.03;;;;;;;-1.87;100.00;95948.63;18303537;32;20058;-65
2022/12/14 06:17:13;;;;;;;29.90;17.10;;;;;;;-1.79;100.00;95942.16;18289243;32;20062;-65
2022/12/14 06:27:15;;;;;;;33.23;18.83;;;;;;;-1.73;100.00;95920.84;18302413;32;20454;-66
2022/12/14 06:37:19;;;;;;;27.80;16.57;;;;;;;-1.60;100.00;95922.41;18302105;32;20059;-66
2022/12/14 06:47:22;;;;;;;29.67;18.20;;;;;;;-1.49;100.00;95910.16;18287890;32;20120;-65
2022/12/14 06:57:26;;;;;;;28.67;17.67;;;;;;;-1.43;100.00;95906.53;18287312;32;20061;-66
2022/12/14 07:07:37;;;;;;;30.50;19.30;;;;;;;-1.35;100.00;95888.66;18285993;32;20105;-66
2022/12/14 07:17:40;;;;;;;31.00;18.27;;;;;;;-1.28;100.00;95892.75;18300210;32;20120;-66
2022/12/14 07:27:43;;;;;;;32.33;19.57;;;;;;;-1.24;100.00;95890.44;18299787;32;20054;-66
2022/12/14 07:37:48;;;;;;;32.67;19.80;;;;;;;-1.15;100.00;95896.16;18299101;32;20126;-66
2022/12/14 07:47:51;;;;;;;32.57;20.37;;;;;;;-1.16;100.00;95887.41;18299245;32;20058;-66
2022/12/14 07:57:54;;;;;;;32.63;20.83;;;;;;;-1.12;100.00;95890.41;18298230;32;20077;-66
2022/12/14 08:07:57;;;;;;;31.87;18.67;;;;;;;-1.07;100.00;95882.50;18283245;32;20063;-66
2022/12/14 08:18:00;;;;;;;30.60;20.00;;;;;;;-0.92;100.00;95897.88;18297446;32;20430;-67
2022/12/14 08:28:03;;;;;;;30.73;19.30;;;;;;;-0.80;100.00;95895.16;18296607;32;20429;-67
2022/12/14 08:38:06;;;;;;;34.30;20.37;;;;;;;-0.75;100.00;95900.53;18296328;32;20062;-67
2022/12/14 08:48:08;;;;;;;27.90;18.00;;;;;;;-0.61;100.00;95893.06;18295781;32;20366;-67
2022/12/14 08:58:15;;;;;;;30.57;18.60;;;;;;;-0.40;100.00;95897.62;18282042;32;20049;-67
2022/12/14 09:08:17;;;;;;;28.97;19.40;;;;;;;-0.17;100.00;95906.44;18294742;32;20377;-67
2022/12/14 09:18:20;;;;;;;32.70;18.00;;;;;;;-0.02;100.00;95935.84;18294466;32;20050;-67
2022/12/14 09:28:23;;;;;;;27.87;17.40;;;;;;;0.18;100.00;95931.87;18294153;32;20094;-67
2022/12/14 09:38:26;;;;;;;26.30;17.13;;;;;;;0.40;100.00;95944.34;18290543;32;20085;-67
2022/12/14 09:48:29;;;;;;;26.97;17.67;;;;;;;0.58;100.00;95964.53;18304650;32;20062;-66
2022/12/14 09:58:34;;;;;;;22.57;15.07;;;;;;;0.31;100.00;95974.00;18303892;32;20062;-66
2022/12/14 10:08:55;;;;;;;23.10;16.03;;;;;;;0.54;100.00;95977.50;18303278;32;20058;-66
2022/12/14 10:19:01;;;;;;;25.80;17.20;;;;;;;0.48;100.00;95978.47;18303160;32;20082;-66
2022/12/14 10:29:14;;;;;;;27.47;17.20;;;;;;;0.60;100.00;95965.84;18302621;32;20140;-66
2022/12/14 10:39:31;;;;;;;23.20;15.67;;;;;;;1.13;100.00;95944.06;18302133;32;20118;-66
2022/12/14 10:50:01;;;;;;;26.77;17.67;;;;;;;1.72;98.42;95921.09;18300539;32;20361;-66
2022/12/14 11:00:13;;;;;;;23.27;15.87;;;;;;;1.41;96.62;95942.19;18301352;32;20057;-66
2022/12/14 11:10:31;;;;;;;23.50;15.73;;;;;;;1.26;98.20;95943.66;18300917;32;20110;-66
2022/12/14 11:20:35;;;;;;;22.83;16.27;;;;;;;1.13;98.56;95939.53;18286843;32;20092;-66
2022/12/14 11:30:38;;;;;;;23.37;16.43;;;;;;;1.10;99.11;95896.69;18273306;32;20049;-66
2022/12/14 11:40:42;;;;;;;25.17;16.10;;;;;;;0.97;100.00;95876.59;18299720;32;20057;-66
2022/12/14 11:50:48;;;;;;;25.07;17.30;;;;;;;1.01;100.00;95904.28;18298488;32;20065;-66
2022/12/14 12:01:04;;;;;;;22.30;14.93;;;;;;;1.04;100.00;95903.00;18297684;32;20159;-66
2022/12/14 12:11:23;;;;;;;24.03;16.40;;;;;;;1.08;100.00;95912.09;18297719;32;20062;-66
2022/12/14 12:21:33;;;;;;;23.63;13.93;;;;;;;1.08;100.00;95914.75;18297161;32;20445;-66
2022/12/14 12:31:47;;;;;;;19.07;13.23;;;;;;;1.17;100.00;95924.66;18283249;32;20070;-66
2022/12/14 12:42:45;;;;;;;23.83;14.83;;;;;;;1.17;100.00;95950.50;18296209;32;20109;-66
2022/12/14 12:52:51;;;;;;;26.17;15.10;;;;;;;1.31;100.00;95957.00;18036800;32;20063;-66
2022/12/14 13:03:40;;;;;;;23.63;15.43;;;;;;;1.32;100.00;95979.13;18036324;32;20063;-66
2022/12/14 13:13:56;;;;;;;22.80;15.00;;;;;;;1.43;100.00;95980.03;18035204;32;20098;-66
2022/12/14 13:24:04;;;;;;;23.93;15.33;;;;;;;1.35;100.00;95987.41;18088461;32;20135;-66
2022/12/14 13:34:55;;;;;;;20.93;13.83;;;;;;;1.26;100.00;96006.75;18168462;32;20105;-66
2022/12/14 13:45:13;;;;;;;19.23;13.10;;;;;;;1.23;100.00;96008.03;18168223;32;20145;-66
2022/12/14 13:55:45;;;;;;;22.93;14.53;;;;;;;1.49;100.00;96026.94;18167548;32;20127;-67
2022/12/14 14:05:56;;;;;;;21.10;14.37;;;;;;;1.55;100.00;96031.28;18232873;32;20067;-67
2022/12/14 14:16:10;;;;;;;20.20;13.77;;;;;;;1.45;100.00;96031.16;18279178;32;20058;-67
2022/12/14 14:26:33;;;;;;;17.93;12.47;;;;;;;1.28;100.00;96041.91;18303020;32;20382;-67
2022/12/14 14:36:36;;;;;;;19.30;12.50;;;;;;;1.29;100.00;96039.00;18302513;32;20062;-67
2022/12/14 14:46:43;;;;;;;18.03;12.93;;;;;;;1.20;100.00;96066.31;18301929;32;20062;-67
2022/12/14 14:56:50;;;;;;;18.87;13.03;;;;;;;0.97;100.00;96079.66;18301573;32;20073;-67
2022/12/14 15:06:57;;;;;;;16.50;12.77;;;;;;;0.86;100.00;96080.56;18300665;32;20102;-67
2022/12/14 15:17:17;;;;;;;20.20;13.70;;;;;;;0.78;100.00;96081.81;18300492;32;20103;-67
2022/12/14 15:27:35;;;;;;;19.80;13.70;;;;;;;0.65;100.00;96104.22;18285096;32;20046;-66
2022/12/14 15:37:54;;;;;;;18.43;12.13;;;;;;;0.60;100.00;96111.34;18286093;32;20084;-66
2022/12/14 15:48:21;;;;;;;11.57;8.00;;;;;;;0.56;100.00;96116.34;18285854;32;20102;-67
2022/12/14 15:58:33;;;;;;;8.20;5.67;;;;;;;0.57;100.00;96117.94;18272302;32;20066;-67
2022/12/14 16:08:39;;;;;;;9.03;6.10;;;;;;;0.64;100.00;96131.88;18297800;32;20046;-66
2022/12/14 16:18:48;;;;;;;6.43;4.67;;;;;;;0.70;100.00;96150.56;18297595;32;20088;-66
2022/12/14 16:29:18;;;;;;;7.00;4.30;;;;;;;0.72;100.00;96145.81;18297194;32;20430;-66
2022/12/14 16:39:22;;;;;;;6.03;3.57;;;;;;;0.73;100.00;96152.78;18296705;32;20088;-67
2022/12/14 16:49:39;;;;;;;4.53;2.17;;;;;;;0.73;100.00;96142.91;18296076;32;20098;-67
2022/12/14 16:59:45;;;;;;;7.10;4.07;;;;;;;0.76;100.00;96158.38;18295745;32;20092;-67
2022/12/14 17:09:47;;;;;;;8.73;4.97;;;;;;;0.65;100.00;96167.28;18294605;32;20054;-67
2022/12/14 17:19:50;;;;;;;9.07;5.27;;;;;;;0.63;100.00;96164.03;18281115;32;20109;-67
2022/12/14 17:29:55;;;;;;;28.43;17.13;;;;;;;0.60;100.00;96162.66;18294321;32;20572;-67
2022/12/14 17:39:58;;;;;;;;;;;;;;;0.62;100.00;96192.50;18294977;32;20062;-66
2022/12/14 17:50:01;;;;;;;24.27;15.57;;;;;;;0.52;100.00;96194.19;18293968;32;19945;-66
